Time;durP1;ratioP1;P1;durP2;ratioP2;P2;SDS_P1;SDS_P2;PMS_P1;PMS_P2;Temp;Humidity;BMP_temperature;BMP_pressure;BME280_temperature;BME280_humidity;BME280_pressure;Samples;Min_cycle;Max_cycle;Signal;HPM_P1;HPM_P2
2021/09/20 00:00:43;;;;;;;10.95;6.93;;;11.20;99.90;;;;;;6280326;22;20010;-86
2021/09/20 00:03:09;;;;;;;13.27;7.30;;;11.20;99.90;;;;;;6280359;22;20255;-86
2021/09/20 00:05:36;;;;;;;11.88;7.28;;;11.20;99.90;;;;;;6260332;22;20018;-86
2021/09/20 00:08:03;;;;;;;12.60;7.88;;;11.10;99.90;;;;;;6316887;22;20026;-87
2021/09/20 00:10:28;;;;;;;13.25;7.53;;;11.10;99.90;;;;;;6311620;22;20014;-86
2021/09/20 00:12:54;;;;;;;13.80;7.53;;;11.10;99.90;;;;;;6309207;22;20053;-85
2021/09/20 00:15:20;;;;;;;11.75;6.82;;;11.00;99.90;;;;;;6283212;22;20014;-86
2021/09/20 00:17:46;;;;;;;14.35;7.70;;;11.00;99.90;;;;;;6289029;22;20007;-87
2021/09/20 00:20:13;;;;;;;12.60;7.18;;;10.90;99.90;;;;;;6283429;22;20350;-87
2021/09/20 00:22:39;;;;;;;15.35;8.38;;;10.90;99.90;;;;;;6313523;22;20017;-86
2021/09/20 00:25:06;;;;;;;12.70;7.25;;;10.90;99.90;;;;;;6317210;22;20014;-86
2021/09/20 00:27:32;;;;;;;13.95;8.07;;;10.80;99.90;;;;;;6315522;22;20038;-87
2021/09/20 00:29:58;;;;;;;10.48;6.95;;;10.80;99.90;;;;;;6284410;22;20045;-87
2021/09/20 00:32:24;;;;;;;13.77;7.68;;;10.70;99.90;;;;;;6286284;22;20014;-87
2021/09/20 00:34:49;;;;;;;13.18;8.30;;;10.70;99.90;;;;;;6287232;22;20014;-87
2021/09/20 00:37:15;;;;;;;11.68;7.80;;;10.70;99.90;;;;;;6294960;22;20044;-87
2021/09/20 00:39:41;;;;;;;11.98;7.80;;;10.70;99.90;;;;;;6291464;22;20455;-86
2021/09/20 00:42:07;;;;;;;15.18;7.68;;;10.60;99.90;;;;;;6289556;22;20427;-86
2021/09/20 00:44:34;;;;;;;13.98;7.43;;;10.50;99.90;;;;;;6284423;22;20070;-86
2021/09/20 00:47:00;;;;;;;11.20;7.43;;;10.50;99.90;;;;;;6282786;22;20050;-87
2021/09/20 00:49:26;;;;;;;15.10;8.52;;;10.50;99.90;;;;;;6308718;22;20021;-87
2021/09/20 00:51:52;;;;;;;12.23;8.02;;;10.40;99.90;;;;;;6287817;22;20024;-87
2021/09/20 00:54:18;;;;;;;10.68;7.20;;;10.40;99.90;;;;;;6291940;22;20093;-86
2021/09/20 00:56:44;;;;;;;12.65;8.07;;;10.40;99.90;;;;;;6259536;22;20014;-86
2021/09/20 00:59:10;;;;;;;11.02;7.70;;;10.40;99.90;;;;;;6255750;22;20025;-86
2021/09/20 01:01:36;;;;;;;18.90;8.02;;;10.40;99.90;;;;;;6260682;22;20014;-87
2021/09/20 01:04:03;;;;;;;13.32;8.07;;;10.40;99.90;;;;;;6311364;22;20513;-87
2021/09/20 01:06:29;;;;;;;13.73;7.47;;;10.40;99.90;;;;;;6333016;22;20320;-85
2021/09/20 01:08:55;;;;;;;14.30;7.97;;;10.30;99.90;;;;;;6256480;22;20374;-86
2021/09/20 01:11:22;;;;;;;16.98;8.80;;;10.30;99.90;;;;;;6308166;22;20021;-86
2021/09/20 01:13:48;;;;;;;10.65;7.68;;;10.30;99.90;;;;;;6288125;22;20443;-87
2021/09/20 01:16:14;;;;;;;13.63;8.10;;;10.20;99.90;;;;;;6285372;22;20438;-87
2021/09/20 01:18:39;;;;;;;17.60;8.55;;;10.30;99.90;;;;;;6285021;22;20021;-86
2021/09/20 01:21:05;;;;;;;20.20;8.38;;;10.30;99.90;;;;;;6285714;22;20015;-87
2021/09/20 01:23:31;;;;;;;13.82;8.43;;;10.20;99.90;;;;;;6311782;22;20020;-86
2021/09/20 01:25:57;;;;;;;15.13;8.02;;;10.20;99.90;;;;;;6261691;22;20015;-86
2021/09/20 01:28:23;;;;;;;13.40;8.20;;;10.20;99.90;;;;;;6291475;22;20076;-86
2021/09/20 01:30:49;;;;;;;10.48;8.18;;;10.20;99.90;;;;;;6298510;22;20018;-87
2021/09/20 01:33:14;;;;;;;15.95;9.00;;;10.10;99.90;;;;;;6271936;22;20483;-86
2021/09/20 01:35:40;;;;;;;18.70;9.48;;;10.10;99.90;;;;;;6289383;22;20013;-87
2021/09/20 01:38:06;;;;;;;15.18;7.80;;;10.10;99.90;;;;;;6289907;22;20006;-87
2021/09/20 01:40:32;;;;;;;24.25;9.40;;;10.00;99.90;;;;;;6322984;22;20049;-86
2021/09/20 01:42:58;;;;;;;13.27;8.55;;;10.00;99.90;;;;;;6322614;22;20033;-87
2021/09/20 01:45:25;;;;;;;16.77;9.25;;;10.00;99.90;;;;;;6322292;22;20025;-88
2021/09/20 01:47:52;;;;;;;14.68;9.02;;;10.00;99.90;;;;;;6320902;22;20025;-87
2021/09/20 01:50:18;;;;;;;14.27;9.02;;;10.00;99.90;;;;;;6321665;22;20018;-86
2021/09/20 01:52:44;;;;;;;15.30;9.75;;;10.00;99.90;;;;;;6319379;22;20014;-87
2021/09/20 01:55:10;;;;;;;16.33;9.10;;;10.00;99.90;;;;;;6317780;22;20014;-86
2021/09/20 01:57:36;;;;;;;14.88;9.30;;;9.90;99.90;;;;;;6271715;22;20099;-87
2021/09/20 02:00:05;;;;;;;15.15;9.80;;;9.90;99.90;;;;;;6324904;22;20014;-87
2021/09/20 02:02:31;;;;;;;13.50;8.70;;;9.90;99.90;;;;;;6296470;22;20097;-86
2021/09/20 02:04:57;;;;;;;17.27;9.73;;;9.90;99.90;;;;;;6321382;22;20018;-87
2021/09/20 02:07:22;;;;;;;18.20;10.35;;;9.90;99.90;;;;;;6296433;22;20018;-86
2021/09/20 02:09:48;;;;;;;15.00;9.32;;;9.90;99.90;;;;;;6322726;22;20063;-86
2021/09/20 02:12:14;;;;;;;14.30;8.70;;;9.90;99.90;;;;;;6298675;22;20070;-88
2021/09/20 02:14:40;;;;;;;19.40;10.15;;;9.90;99.90;;;;;;6296689;22;20015;-87
2021/09/20 02:17:06;;;;;;;17.98;9.82;;;9.90;99.90;;;;;;6294857;22;20089;-87
2021/09/20 02:19:31;;;;;;;17.40;9.40;;;9.90;99.90;;;;;;6314952;22;20093;-87
2021/09/20 02:21:57;;;;;;;23.55;9.95;;;9.90;99.90;;;;;;6287596;22;20018;-87
2021/09/20 02:24:23;;;;;;;15.02;9.07;;;9.90;99.90;;;;;;6291654;22;20014;-87
2021/09/20 02:26:49;;;;;;;13.82;9.00;;;9.90;99.90;;;;;;6289105;22;20018;-87
2021/09/20 02:29:15;;;;;;;14.45;9.13;;;9.90;99.90;;;;;;6282617;22;20014;-87
2021/09/20 02:31:41;;;;;;;15.70;9.60;;;10.00;99.90;;;;;;6256124;22;20018;-87
2021/09/20 02:34:06;;;;;;;14.57;9.38;;;9.90;99.90;;;;;;6254958;22;20085;-88
2021/09/20 02:36:32;;;;;;;14.77;9.70;;;9.90;99.90;;;;;;6279822;22;20011;-87
2021/09/20 02:38:58;;;;;;;14.80;9.75;;;10.00;99.90;;;;;;6281567;22;20015;-87
2021/09/20 02:41:24;;;;;;;16.15;9.68;;;10.00;99.90;;;;;;6282751;22;20053;-87
2021/09/20 02:43:50;;;;;;;13.55;9.55;;;10.00;99.90;;;;;;6305071;22;20018;-88
2021/09/20 02:46:15;;;;;;;14.90;9.25;;;10.00;99.90;;;;;;6280667;22;20059;-86
2021/09/20 02:48:42;;;;;;;20.65;9.75;;;10.00;99.90;;;;;;6280422;22;20018;-87
2021/09/20 02:51:08;;;;;;;12.85;9.45;;;10.00;99.90;;;;;;6306289;22;20022;-87
2021/09/20 02:53:34;;;;;;;14.70;9.38;;;10.00;99.90;;;;;;6282317;22;20458;-87
2021/09/20 02:56:00;;;;;;;13.88;9.32;;;10.00;99.90;;;;;;6257154;22;20021;-87
2021/09/20 02:58:25;;;;;;;17.67;9.10;;;10.00;99.90;;;;;;6304277;22;20011;-86
2021/09/20 03:00:51;;;;;;;12.93;9.70;;;10.10;99.90;;;;;;6254740;22;20228;-87
2021/09/20 03:03:17;;;;;;;17.15;9.77;;;10.10;99.90;;;;;;6306146;22;20176;-88
2021/09/20 03:05:43;;;;;;;16.23;10.50;;;10.10;99.90;;;;;;6306432;22;20007;-87
2021/09/20 03:08:09;;;;;;;15.15;9.93;;;10.10;99.90;;;;;;6305788;22;20419;-87
2021/09/20 03:10:35;;;;;;;16.42;9.50;;;10.20;99.90;;;;;;6282927;22;20263;-86
2021/09/20 03:13:02;;;;;;;18.63;10.55;;;10.10;99.90;;;;;;6293675;22;20014;-87
2021/09/20 03:15:28;;;;;;;15.75;9.85;;;10.20;99.90;;;;;;6311687;22;20046;-87
2021/09/20 03:17:54;;;;;;;14.18;9.40;;;10.20;99.90;;;;;;6280325;22;20015;-87
2021/09/20 03:20:20;;;;;;;13.38;9.15;;;10.20;99.90;;;;;;6254312;22;20326;-87
2021/09/20 03:22:46;;;;;;;15.30;9.02;;;10.20;99.90;;;;;;6279851;22;20395;-87
2021/09/20 03:25:13;;;;;;;16.38;9.60;;;10.20;99.90;;;;;;6278920;22;20025;-87
2021/09/20 03:27:40;;;;;;;16.42;9.50;;;10.30;99.90;;;;;;6308924;22;20014;-87
2021/09/20 03:30:07;;;;;;;14.07;9.48;;;10.30;99.90;;;;;;6305282;22;20522;-87
2021/09/20 03:32:33;;;;;;;16.23;9.48;;;10.30;99.90;;;;;;6305997;22;20067;-87
2021/09/20 03:34:59;;;;;;;16.02;9.77;;;10.30;99.90;;;;;;6280237;22;20013;-88
2021/09/20 03:37:24;;;;;;;15.43;9.80;;;10.30;99.90;;;;;;6253680;22;20384;-88
2021/09/20 03:39:51;;;;;;;16.60;9.88;;;10.40;99.90;;;;;;6330994;22;20021;-87
2021/09/20 03:42:16;;;;;;;14.60;9.38;;;10.40;99.90;;;;;;6282077;22;20010;-87
2021/09/20 03:44:42;;;;;;;16.67;10.02;;;10.40;99.90;;;;;;6305064;22;20461;-88
2021/09/20 03:47:08;;;;;;;16.77;9.30;;;10.40;99.90;;;;;;6281612;22;20097;-87
2021/09/20 03:49:34;;;;;;;16.15;9.65;;;10.50;99.90;;;;;;6252015;22;20513;-87
2021/09/20 03:52:00;;;;;;;16.08;10.15;;;10.50;99.90;;;;;;6253763;22;20121;-86
2021/09/20 03:54:26;;;;;;;13.85;9.60;;;10.50;99.90;;;;;;6279591;22;20466;-86
2021/09/20 03:56:52;;;;;;;16.58;9.63;;;10.50;99.90;;;;;;6279713;22;20017;-87
2021/09/20 03:59:17;;;;;;;17.08;9.95;;;10.50;99.90;;;;;;6280197;22;20022;-87
2021/09/20 04:01:43;;;;;;;17.92;10.35;;;10.60;99.90;;;;;;6280848;22;20021;-86
2021/09/20 04:04:09;;;;;;;16.42;9.80;;;10.60;99.90;;;;;;6278367;22;20010;-87
2021/09/20 04:06:34;;;;;;;17.23;10.07;;;10.60;99.90;;;;;;6279634;22;20088;-86
2021/09/20 04:09:02;;;;;;;17.13;10.13;;;10.60;99.90;;;;;;6304730;22;20081;-87
2021/09/20 04:11:28;;;;;;;15.18;10.05;;;10.70;99.90;;;;;;6279333;22;20019;-87
2021/09/20 04:13:54;;;;;;;14.77;9.15;;;10.70;99.90;;;;;;6307962;22;20064;-86
2021/09/20 04:16:20;;;;;;;18.33;10.82;;;10.70;99.90;;;;;;6280336;22;20131;-87
2021/09/20 04:18:46;;;;;;;15.68;10.05;;;10.70;99.90;;;;;;6277597;22;20053;-88
2021/09/20 04:21:12;;;;;;;15.75;9.82;;;10.70;99.90;;;;;;6279893;22;20049;-86
2021/09/20 04:23:37;;;;;;;15.48;9.48;;;10.70;99.90;;;;;;6278196;22;20029;-86
2021/09/20 04:26:03;;;;;;;16.33;10.27;;;10.70;99.90;;;;;;6305171;22;20019;-86
2021/09/20 04:28:29;;;;;;;15.60;10.55;;;10.80;99.90;;;;;;6306961;22;20014;-88
2021/09/20 04:30:55;;;;;;;18.45;10.63;;;10.80;99.90;;;;;;6330528;22;20025;-88
2021/09/20 04:33:22;;;;;;;21.45;10.43;;;10.80;99.90;;;;;;6280004;22;20434;-87
2021/09/20 04:35:48;;;;;;;17.70;10.00;;;10.90;99.90;;;;;;6304942;22;20060;-86
2021/09/20 04:38:15;;;;;;;13.52;9.65;;;10.90;99.90;;;;;;6304522;22;20019;-87
2021/09/20 04:40:42;;;;;;;14.25;9.73;;;10.90;99.90;;;;;;6331301;22;20015;-87
2021/09/20 04:43:09;;;;;;;17.77;10.73;;;10.90;99.90;;;;;;6278589;22;20491;-87
2021/09/20 04:45:36;;;;;;;15.18;10.30;;;10.90;99.90;;;;;;6307617;22;20358;-87
2021/09/20 04:48:03;;;;;;;23.48;10.77;;;10.90;99.90;;;;;;6304415;22;20014;-88
2021/09/20 04:50:28;;;;;;;15.00;9.95;;;10.90;99.90;;;;;;6330167;22;20063;-88
2021/09/20 04:52:54;;;;;;;15.23;10.25;;;10.90;99.90;;;;;;6280294;22;20010;-87
2021/09/20 04:55:20;;;;;;;19.33;10.10;;;11.00;99.90;;;;;;6279353;22;20014;-88
2021/09/20 04:57:46;;;;;;;16.45;10.68;;;11.00;99.90;;;;;;6304747;22;20010;-86
2021/09/20 05:00:13;;;;;;;16.13;10.85;;;11.00;99.90;;;;;;6306852;22;20097;-87
2021/09/20 05:02:39;;;;;;;16.45;9.98;;;11.00;99.90;;;;;;6303563;22;20014;-86
2021/09/20 05:05:06;;;;;;;15.82;9.52;;;11.00;99.90;;;;;;6280958;22;20018;-87
2021/09/20 05:07:33;;;;;;;16.50;10.30;;;11.00;99.90;;;;;;6282338;22;20380;-87
2021/09/20 05:09:59;;;;;;;15.77;10.05;;;11.00;99.90;;;;;;6282449;22;20007;-88
2021/09/20 05:12:25;;;;;;;17.48;10.30;;;11.10;99.90;;;;;;6282481;22;20534;-87
2021/09/20 05:14:51;;;;;;;17.58;10.90;;;11.10;99.90;;;;;;6285688;22;20039;-88
2021/09/20 05:17:17;;;;;;;17.27;9.88;;;11.10;99.90;;;;;;6281403;22;20079;-87
2021/09/20 05:19:42;;;;;;;19.15;10.40;;;11.20;99.90;;;;;;6310070;22;20458;-86
2021/09/20 05:22:08;;;;;;;16.65;9.90;;;11.20;99.90;;;;;;6282586;22;20395;-87
2021/09/20 05:24:34;;;;;;;15.60;10.02;;;11.20;99.90;;;;;;6308736;22;20451;-87
2021/09/20 05:26:59;;;;;;;18.75;10.27;;;11.20;99.90;;;;;;6337389;22;20016;-87
2021/09/20 05:29:25;;;;;;;13.65;9.30;;;11.20;99.90;;;;;;6337919;22;20010;-88
2021/09/20 05:31:51;;;;;;;23.00;9.88;;;11.20;99.90;;;;;;6306005;22;20052;-86
2021/09/20 05:34:18;;;;;;;14.32;8.57;;;11.20;99.90;;;;;;6294480;22;20019;-87
2021/09/20 05:36:45;;;;;;;15.57;10.25;;;11.20;99.90;;;;;;6283402;22;20520;-88
2021/09/20 05:39:11;;;;;;;14.77;10.20;;;11.30;99.90;;;;;;6281395;22;20033;-87
2021/09/20 05:41:37;;;;;;;17.48;9.45;;;11.30;99.90;;;;;;6308846;22;20018;-86
2021/09/20 05:44:02;;;;;;;19.65;10.50;;;11.20;99.90;;;;;;6307993;22;20010;-87
2021/09/20 05:46:28;;;;;;;15.55;9.77;;;11.30;99.90;;;;;;6284597;22;20351;-87
2021/09/20 05:48:54;;;;;;;15.05;10.05;;;11.30;99.90;;;;;;6257317;22;20446;-87
2021/09/20 05:51:20;;;;;;;16.73;10.30;;;11.40;99.90;;;;;;6307783;22;20014;-87
2021/09/20 05:53:45;;;;;;;13.57;9.30;;;11.40;99.90;;;;;;6283928;22;20037;-87
2021/09/20 05:56:12;;;;;;;13.68;9.40;;;11.40;99.90;;;;;;6281321;22;20042;-87
2021/09/20 05:58:40;;;;;;;18.00;10.43;;;11.40;99.90;;;;;;6309932;22;20022;-88
2021/09/20 06:01:06;;;;;;;19.05;9.60;;;11.50;99.90;;;;;;6284688;22;20105;-87
2021/09/20 06:03:31;;;;;;;15.55;9.38;;;11.50;99.90;;;;;;6281425;22;20187;-87
2021/09/20 06:05:57;;;;;;;16.08;10.18;;;11.50;99.90;;;;;;6255568;22;20300;-88
2021/09/20 06:08:23;;;;;;;19.48;9.15;;;11.50;99.90;;;;;;6307132;22;20027;-87
2021/09/20 06:10:49;;;;;;;15.65;8.65;;;11.50;99.90;;;;;;6256492;22;20450;-87
2021/09/20 06:13:14;;;;;;;18.63;8.90;;;11.50;99.90;;;;;;6257214;22;20006;-87
2021/09/20 06:15:40;;;;;;;18.23;9.85;;;11.60;99.90;;;;;;6281209;22;20007;-87
2021/09/20 06:18:08;;;;;;;19.17;9.65;;;11.60;99.90;;;;;;6281542;22;20014;-86
2021/09/20 06:20:33;;;;;;;14.70;8.27;;;11.60;99.90;;;;;;6305117;22;20010;-88
2021/09/20 06:23:00;;;;;;;14.27;8.98;;;11.60;99.90;;;;;;6253837;22;20473;-86
2021/09/20 06:25:26;;;;;;;19.08;8.57;;;11.70;99.90;;;;;;6307226;22;20098;-87
2021/09/20 06:27:52;;;;;;;13.73;8.85;;;11.70;99.90;;;;;;6309885;22;20022;-88
2021/09/20 06:30:19;;;;;;;16.38;9.00;;;11.80;99.90;;;;;;6329603;22;20025;-86
2021/09/20 06:32:46;;;;;;;18.73;9.52;;;11.80;99.90;;;;;;6301822;22;20010;-87
2021/09/20 06:35:12;;;;;;;18.00;9.13;;;11.80;99.90;;;;;;6302621;22;20021;-87
2021/09/20 06:37:39;;;;;;;18.23;9.30;;;11.90;99.90;;;;;;6303799;22;20088;-86
2021/09/20 06:40:07;;;;;;;15.05;9.02;;;11.90;99.90;;;;;;6275939;22;20530;-87
2021/09/20 06:42:33;;;;;;;14.52;8.32;;;11.90;99.90;;;;;;6277598;22;20114;-86
2021/09/20 06:44:58;;;;;;;12.15;8.40;;;11.90;99.90;;;;;;6276359;22;20018;-86
2021/09/20 06:47:25;;;;;;;13.50;7.78;;;11.90;99.90;;;;;;6275170;22;20017;-85
2021/09/20 06:49:50;;;;;;;17.17;9.32;;;12.00;99.90;;;;;;6326535;22;20014;-87
2021/09/20 06:52:17;;;;;;;26.40;9.73;;;12.00;99.90;;;;;;6276149;22;20025;-86
2021/09/20 06:54:44;;;;;;;13.00;8.27;;;12.10;99.90;;;;;;6275363;22;20388;-87
2021/09/20 06:57:09;;;;;;;16.98;8.50;;;12.10;99.90;;;;;;6326598;22;20436;-88
2021/09/20 06:59:35;;;;;;;15.63;8.23;;;12.20;99.90;;;;;;6275037;22;20010;-87
2021/09/20 07:02:01;;;;;;;11.35;7.60;;;12.20;99.90;;;;;;6276765;22;20010;-87
2021/09/20 07:04:27;;;;;;;16.58;8.05;;;12.20;99.90;;;;;;6249716;22;20446;-86
2021/09/20 07:06:53;;;;;;;13.80;7.50;;;12.30;99.90;;;;;;6251761;22;20010;-87
2021/09/20 07:09:19;;;;;;;9.63;8.02;;;12.30;99.90;;;;;;6248592;22;20087;-86
2021/09/20 07:11:44;;;;;;;10.10;6.93;;;12.30;99.90;;;;;;6276227;22;20393;-87
2021/09/20 07:14:11;;;;;;;15.98;7.70;;;12.40;99.90;;;;;;6302293;22;20056;-87
2021/09/20 07:16:37;;;;;;;17.45;8.77;;;12.40;99.90;;;;;;6300719;22;20010;-87
2021/09/20 07:19:03;;;;;;;12.70;7.50;;;12.40;99.90;;;;;;6302954;22;20018;-86
2021/09/20 07:21:30;;;;;;;10.98;7.22;;;12.50;99.90;;;;;;6275845;22;20010;-87
2021/09/20 07:23:56;;;;;;;17.02;7.53;;;12.50;99.90;;;;;;6327953;22;20083;-86
2021/09/20 07:26:25;;;;;;;12.65;7.57;;;12.50;99.90;;;;;;6274559;22;20022;-86
2021/09/20 07:28:50;;;;;;;19.08;8.15;;;12.60;99.90;;;;;;6300581;22;20017;-87
2021/09/20 07:31:16;;;;;;;13.27;7.82;;;12.60;99.90;;;;;;6301322;22;20354;-88
2021/09/20 07:33:45;;;;;;;16.55;8.30;;;12.60;99.90;;;;;;6277286;22;20265;-87
2021/09/20 07:36:11;;;;;;;10.63;7.10;;;12.70;99.90;;;;;;6274458;22;20065;-87
2021/09/20 07:38:37;;;;;;;14.63;7.82;;;12.70;99.90;;;;;;6276427;22;20071;-86
2021/09/20 07:41:05;;;;;;;8.35;7.07;;;12.70;99.90;;;;;;6300292;22;20043;-88
2021/09/20 07:43:31;;;;;;;11.73;7.35;;;12.80;99.90;;;;;;6301644;22;20021;-88
2021/09/20 07:45:57;;;;;;;13.13;7.70;;;12.80;99.90;;;;;;6274752;22;20588;-87
2021/09/20 07:48:23;;;;;;;12.93;6.65;;;12.80;99.90;;;;;;6299405;22;20033;-86
2021/09/20 07:50:50;;;;;;;16.33;7.25;;;12.80;99.90;;;;;;6312689;22;20018;-88
2021/09/20 07:53:20;;;;;;;10.00;6.32;;;12.90;99.90;;;;;;6324614;22;20010;-85
2021/09/20 07:55:47;;;;;;;8.25;6.57;;;12.90;99.90;;;;;;6304941;22;20062;-85
2021/09/20 07:58:14;;;;;;;10.85;6.35;;;13.00;99.90;;;;;;6302055;22;20014;-85
2021/09/20 08:00:41;;;;;;;15.60;6.90;;;13.00;99.90;;;;;;6300554;22;20014;-86
2021/09/20 08:03:09;;;;;;;9.82;6.00;;;13.00;99.90;;;;;;6275509;22;20014;-86
2021/09/20 08:05:42;;;;;;;10.90;6.40;;;13.00;99.90;;;;;;6276503;22;20139;-85
2021/09/20 08:08:09;;;;;;;11.73;6.15;;;13.10;99.90;;;;;;6277722;22;20101;-86
2021/09/20 08:10:36;;;;;;;10.80;5.22;;;13.10;99.90;;;;;;6278279;22;20357;-86
2021/09/20 08:13:04;;;;;;;10.27;6.10;;;13.10;99.90;;;;;;6301050;22;20435;-86
2021/09/20 08:15:30;;;;;;;13.02;6.15;;;13.20;99.90;;;;;;6302339;22;20041;-86
2021/09/20 08:17:56;;;;;;;11.30;5.53;;;13.20;99.90;;;;;;6302667;22;20025;-86
2021/09/20 08:20:22;;;;;;;11.40;5.55;;;13.20;99.90;;;;;;6253894;22;20014;-86
2021/09/20 08:22:49;;;;;;;10.38;5.10;;;13.30;99.90;;;;;;6303646;22;20018;-84
2021/09/20 08:25:20;;;;;;;10.70;5.47;;;13.30;99.90;;;;;;6280838;22;20029;-86
2021/09/20 08:27:46;;;;;;;12.05;5.18;;;13.30;99.90;;;;;;6301935;22;20074;-86
2021/09/20 08:30:12;;;;;;;11.38;5.13;;;13.30;99.90;;;;;;6301321;22;20399;-86
2021/09/20 08:32:39;;;;;;;7.43;5.15;;;13.30;99.90;;;;;;6301716;22;20425;-86
2021/09/20 08:35:08;;;;;;;7.93;5.25;;;13.40;99.90;;;;;;6301675;22;20037;-88
2021/09/20 08:37:41;;;;;;;10.52;5.18;;;13.40;99.90;;;;;;6305262;22;20042;-85
2021/09/20 08:40:08;;;;;;;7.38;4.68;;;13.50;99.90;;;;;;6324978;22;20489;-86
2021/09/20 08:42:35;;;;;;;6.22;4.45;;;13.50;99.90;;;;;;6279072;22;20491;-87
2021/09/20 08:45:09;;;;;;;7.95;4.78;;;13.50;99.90;;;;;;6301617;22;20066;-87
2021/09/20 08:47:43;;;;;;;8.43;4.60;;;13.60;99.90;;;;;;6301130;22;20014;-86
2021/09/20 08:50:11;;;;;;;6.88;4.30;;;13.60;99.90;;;;;;6326903;22;20018;-87
2021/09/20 08:52:37;;;;;;;9.15;4.50;;;13.60;99.90;;;;;;6303806;22;20049;-86
2021/09/20 08:55:04;;;;;;;11.45;4.30;;;13.70;99.90;;;;;;6276384;22;20098;-85
2021/09/20 08:57:30;;;;;;;8.15;3.80;;;13.70;99.80;;;;;;6300393;22;20010;-86
2021/09/20 08:59:59;;;;;;;11.77;4.80;;;13.80;99.60;;;;;;6299015;22;20079;-86
2021/09/20 09:02:30;;;;;;;6.97;3.30;;;13.80;99.40;;;;;;6276287;22;20026;-86
2021/09/20 09:05:12;;;;;;;7.95;3.55;;;13.90;99.00;;;;;;6300129;22;20014;-86
2021/09/20 09:07:45;;;;;;;7.10;4.18;;;13.90;98.30;;;;;;6299180;22;20512;-86
2021/09/20 09:10:14;;;;;;;5.05;3.33;;;14.00;98.90;;;;;;6326353;22;20018;-87
2021/09/20 09:12:41;;;;;;;4.55;3.00;;;14.00;98.80;;;;;;6275985;22;20026;-85
2021/09/20 09:15:15;;;;;;;10.05;3.30;;;14.10;98.30;;;;;;6302072;22;20022;-88
2021/09/20 09:17:47;;;;;;;4.20;2.90;;;14.10;97.50;;;;;;6276579;22;20208;-86
2021/09/20 09:20:27;;;;;;;;;;;14.10;97.50;;;;;;6327302;22;20011;-85
2021/09/20 09:23:01;;;;;;;4.05;2.42;;;14.20;96.50;;;;;;6301915;22;20278;-86
2021/09/20 09:25:45;;;;;;;5.63;3.00;;;14.30;97.20;;;;;;6300488;22;20466;-84
2021/09/20 09:28:37;;;;;;;6.07;2.85;;;14.30;97.00;;;;;;6304474;22;20015;-86
2021/09/20 09:31:04;;;;;;;4.72;2.30;;;14.40;96.20;;;;;;6300764;22;20018;-86
2021/09/20 09:33:53;;;;;;;3.05;2.33;;;14.40;96.00;;;;;;6262650;22;20085;-86
2021/09/20 09:36:19;;;;;;;4.30;2.15;;;14.50;95.90;;;;;;6300751;22;20347;-87
2021/09/20 09:39:02;;;;;;;7.32;2.35;;;14.50;95.70;;;;;;6248601;22;20051;-87
2021/09/20 09:41:54;;;;;;;4.47;2.30;;;14.60;95.80;;;;;;6276420;22;20050;-87
2021/09/20 09:44:37;;;;;;;3.47;2.30;;;14.70;95.60;;;;;;6278041;22;20014;-86
2021/09/20 09:50:29;;;;;;;2.72;1.90;;;14.80;95.40;;;;;;6262581;22;20021;-86
2021/09/20 09:52:57;;;;;;;4.93;2.20;;;14.90;95.30;;;;;;6304427;22;20026;-86
2021/09/20 09:56:18;;;;;;;7.00;1.92;;;15.00;95.10;;;;;;6300636;22;20022;-87
2021/09/20 10:25:03;;;;;;;3.70;1.70;;;15.70;87.60;;;;;;6337734;22;20508;-86
2021/09/20 10:27:44;;;;;;;3.35;2.10;;;15.70;84.60;;;;;;6309902;22;20018;-88
2021/09/20 10:30:42;;;;;;;5.32;1.92;;;15.60;84.70;;;;;;6305973;22;20041;-88
2021/09/20 10:33:45;;;;;;;3.55;1.63;;;15.60;84.00;;;;;;6308173;22;20026;-87
2021/09/20 10:36:11;;;;;;;;;;;15.60;87.00;;;;;;6334064;22;20048;-88
2021/09/20 10:38:37;;;;;;;2.90;1.60;;;15.60;89.20;;;;;;6305559;22;19918;-89
2021/09/20 10:41:26;;;;;;;4.10;1.88;;;15.60;88.40;;;;;;6304541;22;20511;-89
2021/09/20 10:44:04;;;;;;;3.38;1.73;;;15.60;88.50;;;;;;6179414;23;20021;-86
2021/09/20 10:47:21;;;;;;;5.57;1.75;;;15.60;83.80;;;;;;6163073;23;20024;-88
2021/09/20 10:49:49;;;;;;;3.77;1.70;;;15.60;86.10;;;;;;6137789;23;20041;-84
2021/09/20 10:52:28;;;;;;;7.72;1.90;;;15.60;83.20;;;;;;6142427;23;20086;-88
2021/09/20 10:55:18;;;;;;;7.50;1.73;;;15.70;84.60;;;;;;6110470;23;20023;-88
2021/09/20 11:20:50;;;;;;;4.82;1.65;;;15.90;79.90;;;;;;6323315;22;20099;-86
2021/09/20 11:41:36;;;;;;;9.97;2.17;;;15.60;68.50;;;;;;6193597;23;20067;-88
2021/09/20 11:44:02;;;;;;;8.23;1.80;;;15.50;69.50;;;;;;6120820;23;20036;-86
2021/09/20 11:46:28;;;;;;;10.82;2.15;;;15.30;70.10;;;;;;6122515;23;20016;-85
2021/09/20 11:49:07;;;;;;;8.50;2.15;;;15.30;70.90;;;;;;6144076;23;20096;-86
2021/09/20 11:51:40;;;;;;;14.60;2.15;;;15.30;70.50;;;;;;6197307;23;20059;-85
2021/09/20 11:54:07;;;;;;;6.65;2.00;;;15.30;71.10;;;;;;6123084;23;20024;-86
2021/09/20 11:56:33;;;;;;;12.32;2.45;;;15.30;71.60;;;;;;6118421;23;20087;-85
2021/09/20 11:59:06;;;;;;;6.20;2.15;;;15.20;71.30;;;;;;6193971;23;20524;-86
2021/09/20 12:01:37;;;;;;;8.10;2.22;;;15.20;70.70;;;;;;6122998;23;20414;-86
2021/09/20 12:04:12;;;;;;;5.65;2.15;;;15.20;71.20;;;;;;6147015;23;20473;-85
2021/09/20 12:06:39;;;;;;;9.40;2.35;;;15.20;71.60;;;;;;6146365;23;20091;-86
2021/09/20 12:09:18;;;;;;;8.57;1.80;;;15.20;71.60;;;;;;6183490;22;20122;-85
2021/09/20 12:11:46;;;;;;;3.10;1.20;;;15.20;71.40;;;;;;6234845;22;20019;-87
2021/09/20 12:14:14;;;;;;;2.83;1.85;;;15.20;72.60;;;;;;6209080;22;20050;-84
2021/09/20 12:16:40;;;;;;;7.10;2.40;;;15.20;73.30;;;;;;6233747;22;20669;-86
2021/09/20 12:19:06;;;;;;;6.53;1.70;;;15.20;74.00;;;;;;6186267;22;20011;-86
2021/09/20 12:21:33;;;;;;;4.03;1.75;;;15.20;73.90;;;;;;6209487;22;20223;-86
2021/09/20 12:23:59;;;;;;;2.63;1.45;;;15.20;73.70;;;;;;6234033;22;20119;-87
2021/09/20 12:26:25;;;;;;;3.88;2.00;;;15.20;74.70;;;;;;6233458;22;20493;-85
2021/09/20 12:29:00;;;;;;;2.45;1.60;;;15.20;74.10;;;;;;6239191;22;20025;-86
2021/09/20 12:31:41;;;;;;;5.25;1.70;;;15.30;74.50;;;;;;6257177;22;20023;-88
2021/09/20 12:34:12;;;;;;;2.40;1.30;;;15.30;74.30;;;;;;6245189;22;20015;-87
2021/09/20 12:36:43;;;;;;;4.05;1.70;;;15.40;75.40;;;;;;6246336;22;20321;-88
2021/09/20 12:39:17;;;;;;;5.10;1.85;;;15.50;73.20;;;;;;6292509;22;20019;-87
2021/09/20 12:41:56;;;;;;;4.40;1.40;;;15.50;74.60;;;;;;6292873;22;20011;-88
2021/09/20 12:44:41;;;;;;;2.75;1.63;;;15.60;77.50;;;;;;6294087;22;20259;-87
2021/09/20 12:47:37;;;;;;;2.08;1.25;;;15.70;75.70;;;;;;6292025;22;20015;-87
2021/09/20 12:50:10;;;;;;;5.20;1.80;;;15.70;69.00;;;;;;6238708;22;20392;-85
2021/09/20 12:52:43;;;;;;;3.95;1.70;;;15.80;71.30;;;;;;6293186;22;20011;-85
2021/09/20 12:55:13;;;;;;;;;;;15.80;70.30;;;;;;6267173;22;20011;-86
2021/09/20 12:57:49;;;;;;;6.22;1.65;;;15.80;64.50;;;;;;6293363;22;19993;-86
2021/09/20 13:00:18;;;;;;;5.93;1.67;;;15.80;69.20;;;;;;6293691;22;20845;-86
2021/09/20 13:02:44;;;;;;;8.32;1.90;;;15.80;69.50;;;;;;6294477;22;20026;-85
2021/09/20 13:05:18;;;;;;;3.28;1.52;;;15.70;69.20;;;;;;6292040;22;20015;-86
2021/09/20 13:08:06;;;;;;;3.78;1.75;;;15.70;69.00;;;;;;6318596;22;20019;-86
2021/09/20 13:10:36;;;;;;;7.95;1.95;;;15.70;68.90;;;;;;6291809;22;20041;-85
2021/09/20 13:13:03;;;;;;;4.07;1.35;;;15.70;69.50;;;;;;6293737;22;20018;-85
2021/09/20 13:15:31;;;;;;;5.30;1.50;;;15.70;68.30;;;;;;6317913;22;20015;-85
2021/09/20 13:17:59;;;;;;;4.22;1.50;;;15.70;68.20;;;;;;6320221;22;20015;-88
2021/09/20 13:20:34;;;;;;;6.38;1.25;;;15.70;68.10;;;;;;6265752;22;20014;-87
2021/09/20 13:23:09;;;;;;;4.20;1.50;;;15.70;69.20;;;;;;6295347;22;20011;-85
2021/09/20 13:25:38;;;;;;;2.20;1.25;;;15.80;69.70;;;;;;6294052;22;20019;-86
2021/09/20 13:28:03;;;;;;;1.85;1.38;;;15.80;68.90;;;;;;6293799;22;20370;-86
2021/09/20 13:30:31;;;;;;;3.60;1.90;;;15.80;68.30;;;;;;6295005;22;20007;-87
2021/09/20 13:32:57;;;;;;;2.53;1.30;;;15.90;67.90;;;;;;6272111;22;20102;-86
2021/09/20 13:35:33;;;;;;;3.55;1.80;;;15.90;67.30;;;;;;6320282;22;20011;-88
2021/09/20 13:38:00;;;;;;;6.05;1.75;;;15.90;66.70;;;;;;6322004;22;20048;-85
2021/09/20 13:40:26;;;;;;;7.28;2.25;;;15.90;65.80;;;;;;6269086;22;20019;-86
2021/09/20 13:43:15;;;;;;;3.30;1.60;;;15.90;64.30;;;;;;6295521;22;20025;-86
2021/09/20 13:45:44;;;;;;;2.80;1.52;;;15.90;64.40;;;;;;6325405;22;20427;-88
2021/09/20 13:48:12;;;;;;;2.20;1.30;;;15.90;64.70;;;;;;6293180;22;20015;-89
2021/09/20 13:50:51;;;;;;;5.68;1.50;;;15.90;65.40;;;;;;6319745;22;20017;-88
2021/09/20 13:53:30;;;;;;;3.47;1.38;;;15.80;64.70;;;;;;6296256;22;20015;-87
2021/09/20 13:56:00;;;;;;;2.53;1.45;;;15.80;65.40;;;;;;6273957;22;20019;-86
2021/09/20 13:58:35;;;;;;;3.22;1.60;;;15.80;65.60;;;;;;6267673;22;20011;-86